createdAt,value
2023-05-19T08:25:26.665Z,16.94
2023-05-19T08:27:53.819Z,17.03
2023-05-19T08:30:20.854Z,17.17
2023-05-19T08:32:48.953Z,17.20
2023-05-19T08:35:16.144Z,17.12
2023-05-19T08:37:43.151Z,17.02
2023-05-19T08:40:17.185Z,17.05
2023-05-19T08:42:45.752Z,16.89
2023-05-19T08:45:13.546Z,16.87
2023-05-19T08:47:42.584Z,17.01
2023-05-19T08:50:36.081Z,17.19
2023-05-19T08:53:33.107Z,17.34
2023-05-19T08:56:22.956Z,17.51
2023-05-19T08:58:51.841Z,17.67
2023-05-19T09:01:20.160Z,17.87
2023-05-19T09:03:50.138Z,17.70
2023-05-19T09:06:17.782Z,17.76
2023-05-19T09:08:45.089Z,17.94
2023-05-19T09:11:12.609Z,18.02
2023-05-19T09:13:39.734Z,18.20
2023-05-19T09:16:07.211Z,18.37
2023-05-19T09:18:34.432Z,18.40
2023-05-19T09:21:03.382Z,18.52
2023-05-19T09:23:34.339Z,18.66
2023-05-19T09:26:08.042Z,18.79
2023-05-19T09:28:36.749Z,18.82
2023-05-19T09:31:11.438Z,18.92
2023-05-19T09:33:42.890Z,19.00
2023-05-19T09:36:11.868Z,19.09
2023-05-19T09:38:39.804Z,19.23
2023-05-19T09:41:08.446Z,19.37
2023-05-19T09:43:35.820Z,19.42
2023-05-19T09:46:14.648Z,19.56
2023-05-19T09:48:42.698Z,19.78
2023-05-19T09:51:12.567Z,19.92
2023-05-19T09:53:39.606Z,20.07
2023-05-19T09:56:09.007Z,20.25
2023-05-19T09:58:36.934Z,20.43
2023-05-19T10:01:05.024Z,20.67
2023-05-19T10:03:35.447Z,21.01
2023-05-19T10:06:04.817Z,21.05
2023-05-19T10:08:33.786Z,20.99
2023-05-19T10:11:01.447Z,20.93
2023-05-19T10:13:30.177Z,20.61
2023-05-19T10:16:00.058Z,20.69
2023-05-19T10:18:30.995Z,20.96
2023-05-19T10:20:59.228Z,21.11
2023-05-19T10:23:26.883Z,21.20
2023-05-19T10:25:56.868Z,21.13
2023-05-19T10:28:28.410Z,21.22
2023-05-19T10:31:00.834Z,21.42
2023-05-19T10:33:54.214Z,21.55
2023-05-19T10:36:31.373Z,21.61
2023-05-19T10:39:08.401Z,21.76
2023-05-19T10:41:45.145Z,22.03
2023-05-19T10:44:21.514Z,22.27
2023-05-19T10:46:49.223Z,21.78
2023-05-19T10:49:25.401Z,21.56
2023-05-19T10:51:55.160Z,21.67
2023-05-19T10:54:43.721Z,21.92
2023-05-19T10:57:14.474Z,22.01
2023-05-19T10:59:42.334Z,22.10
2023-05-19T11:02:09.499Z,22.00
2023-05-19T11:05:07.899Z,21.90
2023-05-19T11:07:35.180Z,21.89
2023-05-19T11:10:07.603Z,22.19
2023-05-19T11:12:46.083Z,22.34
2023-05-19T11:15:15.339Z,22.49
2023-05-19T11:17:45.549Z,22.56
2023-05-19T11:20:26.689Z,22.70
2023-05-19T11:23:26.508Z,22.82
2023-05-19T11:25:56.499Z,22.76
2023-05-19T11:28:29.572Z,22.31
2023-05-19T11:30:59.358Z,22.44
2023-05-19T11:33:30.366Z,22.67
2023-05-19T11:35:58.784Z,22.62
2023-05-19T11:38:26.810Z,22.46
2023-05-19T11:40:54.783Z,22.28
2023-05-19T11:43:25.945Z,21.85
2023-05-19T11:45:54.802Z,21.39
2023-05-19T11:48:22.682Z,21.31
2023-05-19T11:50:50.485Z,21.14
2023-05-19T11:53:20.034Z,20.81
2023-05-19T11:55:48.245Z,20.72
2023-05-19T11:58:17.085Z,20.61
2023-05-19T12:00:46.472Z,20.39
2023-05-19T12:03:13.828Z,20.23
2023-05-19T12:05:46.866Z,20.00
2023-05-19T12:08:14.360Z,19.52
2023-05-19T12:10:41.953Z,19.41
2023-05-19T12:13:11.999Z,19.18
2023-05-19T12:15:39.519Z,18.87
2023-05-19T12:18:07.095Z,18.57
2023-05-19T12:20:36.315Z,17.98
2023-05-19T12:23:04.288Z,17.54
2023-05-19T12:25:32.663Z,17.02
2023-05-19T12:28:03.564Z,16.42
2023-05-19T12:30:32.191Z,15.93
2023-05-19T12:33:00.027Z,15.44
2023-05-19T12:35:33.589Z,15.09
2023-05-19T12:38:07.417Z,14.99
2023-05-19T12:40:36.303Z,15.02
2023-05-19T12:43:04.417Z,15.01
2023-05-19T12:45:36.333Z,15.13
2023-05-19T12:48:05.690Z,15.29
2023-05-19T12:50:34.587Z,15.47
2023-05-19T12:53:02.324Z,15.70
2023-05-19T12:55:30.146Z,15.95
2023-05-19T12:57:58.592Z,16.15
2023-05-19T13:00:28.825Z,16.36
2023-05-19T13:03:14.885Z,16.57
2023-05-19T13:05:44.575Z,16.70
2023-05-19T13:08:13.329Z,16.72
2023-05-19T13:10:42.491Z,16.80
2023-05-19T13:13:09.350Z,16.94
2023-05-19T13:15:40.536Z,17.05
2023-05-19T13:18:10.435Z,17.21
2023-05-19T13:20:38.840Z,17.31
2023-05-19T13:23:06.203Z,17.42
2023-05-19T13:25:34.731Z,17.54
2023-05-19T13:28:05.595Z,17.67
2023-05-19T13:30:34.354Z,17.79
2023-05-19T13:33:02.022Z,17.89
2023-05-19T13:35:29.371Z,18.11
2023-05-19T13:37:56.510Z,18.09
2023-05-19T13:40:24.443Z,18.22
2023-05-19T13:42:51.524Z,18.38
2023-05-19T13:45:18.696Z,18.21
2023-05-19T13:47:45.735Z,18.26
2023-05-19T13:50:12.930Z,18.41
2023-05-19T13:52:39.997Z,18.56
2023-05-19T13:55:08.133Z,18.67
2023-05-19T13:57:35.932Z,18.62
2023-05-19T14:00:05.067Z,18.59
2023-05-19T14:02:41.460Z,18.40
2023-05-19T14:05:09.082Z,18.22
2023-05-19T14:07:36.236Z,18.25
2023-05-19T14:10:05.738Z,18.27
2023-05-19T14:12:41.457Z,18.44
2023-05-19T14:15:11.591Z,18.61
2023-05-19T14:17:38.998Z,18.72
2023-05-19T14:20:06.576Z,18.96
2023-05-19T14:22:33.602Z,19.25
2023-05-19T14:25:00.932Z,19.50
2023-05-19T14:27:27.922Z,19.57
2023-05-19T14:29:54.982Z,19.34
2023-05-19T14:32:22.752Z,19.12
2023-05-19T14:34:53.041Z,19.03
2023-05-19T14:37:20.649Z,19.14
2023-05-19T14:39:47.664Z,19.18
2023-05-19T14:42:14.996Z,19.34
2023-05-19T14:44:42.033Z,19.38
2023-05-19T14:47:11.501Z,19.41
2023-05-19T14:49:38.720Z,19.49
2023-05-19T14:52:05.906Z,19.52
2023-05-19T14:54:32.846Z,19.53
2023-05-19T14:57:00.409Z,19.65
2023-05-19T14:59:27.713Z,19.88
2023-05-19T15:01:54.812Z,20.22
2023-05-19T15:04:22.085Z,20.51
2023-05-19T15:06:58.165Z,20.80
2023-05-19T15:09:36.436Z,21.15
2023-05-19T15:12:03.714Z,21.37
2023-05-19T15:14:31.364Z,21.54
2023-05-19T15:16:59.106Z,21.74
2023-05-19T15:19:26.739Z,21.87
2023-05-19T15:21:54.415Z,22.06
2023-05-19T15:24:21.544Z,22.15
2023-05-19T15:26:48.673Z,22.19
2023-05-19T15:29:15.795Z,22.30
2023-05-19T15:31:42.974Z,22.30
2023-05-19T15:34:10.181Z,22.42
2023-05-19T15:36:37.276Z,22.35
2023-05-19T15:39:04.306Z,22.24
2023-05-19T15:41:31.374Z,22.05
2023-05-19T15:44:00.669Z,22.01
2023-05-19T15:46:28.473Z,21.77
2023-05-19T15:48:56.197Z,21.51
2023-05-19T15:51:24.229Z,21.33
2023-05-19T15:53:51.769Z,21.16
2023-05-19T15:56:19.682Z,21.00
2023-05-19T15:58:46.851Z,20.84
2023-05-19T16:01:16.266Z,20.63
2023-05-19T16:03:44.382Z,20.52
2023-05-19T16:06:11.621Z,20.27
2023-05-19T16:08:38.717Z,20.14
2023-05-19T16:11:05.930Z,20.01
2023-05-19T16:13:34.157Z,19.92
2023-05-19T16:16:01.472Z,19.84
2023-05-19T16:18:31.281Z,19.75
2023-05-19T16:20:58.472Z,19.66
2023-05-19T16:23:25.608Z,19.54
2023-05-19T16:25:55.166Z,19.48
2023-05-19T16:28:24.494Z,19.55
2023-05-19T16:30:51.920Z,19.83
2023-05-19T16:33:19.222Z,20.08
2023-05-19T16:35:46.296Z,20.31
2023-05-19T16:38:13.620Z,20.57
2023-05-19T16:40:40.753Z,20.81
2023-05-19T16:43:07.789Z,20.97
2023-05-19T16:45:34.911Z,20.94
2023-05-19T16:48:02.227Z,20.81
2023-05-19T16:50:29.793Z,20.63
2023-05-19T16:52:56.903Z,20.57
2023-05-19T16:55:25.667Z,20.59
2023-05-19T16:57:52.745Z,20.49
2023-05-19T17:02:30.518Z,20.05
